createdAt,value
2019-04-20T00:02:08.313Z,12.20
2019-04-20T00:04:35.173Z,12.20
2019-04-20T00:07:04.080Z,12.10
2019-04-20T00:09:38.395Z,12.10
2019-04-20T00:12:16.973Z,12.10
2019-04-20T00:14:41.306Z,12.00
2019-04-20T00:17:11.793Z,12.00
2019-04-20T00:19:47.796Z,12.00
2019-04-20T00:22:23.360Z,12.00
2019-04-20T00:25:20.124Z,12.00
2019-04-20T00:28:19.807Z,11.90
2019-04-20T00:30:54.424Z,11.90
2019-04-20T00:33:24.271Z,11.90
2019-04-20T00:35:42.110Z,11.90
2019-04-20T00:38:13.958Z,11.90
2019-04-20T00:40:45.496Z,11.90
2019-04-20T00:43:25.099Z,11.80
2019-04-20T00:45:58.521Z,11.80
2019-04-20T00:48:33.791Z,11.80
2019-04-20T00:51:17.789Z,11.70
2019-04-20T00:53:36.228Z,11.70
2019-04-20T00:56:01.366Z,11.70
2019-04-20T00:58:46.669Z,11.70
2019-04-20T01:01:24.919Z,11.60
2019-04-20T01:03:49.445Z,11.60
2019-04-20T01:06:40.823Z,11.50
2019-04-20T01:09:09.832Z,11.50
2019-04-20T01:11:43.960Z,11.50
2019-04-20T01:14:15.607Z,11.50
2019-04-20T01:16:52.923Z,11.40
2019-04-20T01:19:19.316Z,11.40
2019-04-20T01:21:58.203Z,11.40
2019-04-20T01:24:29.699Z,11.40
2019-04-20T01:26:58.032Z,11.30
2019-04-20T01:29:38.394Z,11.30
2019-04-20T01:32:10.489Z,11.20
2019-04-20T01:34:41.675Z,11.20
2019-04-20T01:37:17.597Z,11.10
2019-04-20T01:39:43.210Z,11.20
2019-04-20T01:42:08.870Z,11.20
2019-04-20T01:44:43.876Z,11.20
2019-04-20T01:47:13.387Z,11.20
2019-04-20T01:49:49.703Z,11.10
2019-04-20T01:52:24.261Z,11.10
2019-04-20T01:55:23.194Z,11.10
2019-04-20T01:58:00.387Z,11.10
2019-04-20T02:00:48.147Z,11.10
2019-04-20T02:03:40.308Z,11.00
2019-04-20T02:06:13.711Z,11.00
2019-04-20T02:08:42.157Z,11.00
2019-04-20T02:11:20.592Z,11.00
2019-04-20T02:13:52.915Z,11.10
2019-04-20T02:16:26.456Z,11.10
2019-04-20T02:19:05.311Z,11.00
2019-04-20T02:21:37.930Z,11.00
2019-04-20T02:24:00.619Z,11.00
2019-04-20T02:26:28.179Z,11.00
2019-04-20T02:29:24.488Z,11.00
2019-04-20T02:38:06.854Z,11.00
2019-04-20T02:40:35.220Z,11.00
2019-04-20T02:45:33.627Z,10.80
2019-04-20T02:48:01.457Z,10.80
2019-04-20T02:50:37.944Z,10.80
2019-04-20T02:53:13.221Z,10.80
2019-04-20T02:55:41.833Z,10.80
2019-04-20T02:58:07.821Z,10.80
2019-04-20T03:00:35.196Z,10.80
2019-04-20T03:02:56.096Z,10.80
2019-04-20T03:05:30.743Z,10.80
2019-04-20T03:08:10.067Z,10.80
2019-04-20T03:10:47.313Z,10.70
2019-04-20T03:13:18.606Z,10.70
2019-04-20T03:15:51.886Z,10.60
2019-04-20T03:18:19.262Z,10.60
2019-04-20T03:20:54.986Z,10.60
2019-04-20T03:23:30.123Z,10.60
2019-04-20T03:26:19.192Z,10.60
2019-04-20T03:28:54.120Z,10.70
2019-04-20T03:36:41.526Z,10.70
2019-04-20T03:39:09.498Z,10.70
2019-04-20T03:41:28.235Z,10.70
2019-04-20T03:43:55.112Z,10.60
2019-04-20T03:46:34.309Z,10.70
2019-04-20T03:49:17.250Z,10.70
2019-04-20T03:51:53.339Z,10.70
2019-04-20T03:54:40.769Z,10.70
2019-04-20T03:57:29.289Z,10.70
2019-04-20T04:00:05.119Z,10.70
2019-04-20T04:03:00.405Z,10.70
2019-04-20T04:05:19.233Z,10.80
2019-04-20T04:07:40.620Z,10.80
2019-04-20T04:10:20.781Z,10.80
2019-04-20T04:13:11.783Z,10.70
2019-04-20T04:15:50.114Z,10.80
2019-04-20T04:18:26.234Z,10.70
2019-04-20T04:20:59.074Z,10.70
2019-04-20T04:23:40.844Z,10.80
2019-04-20T04:26:14.822Z,10.80
2019-04-20T04:28:44.758Z,10.80
2019-04-20T04:31:22.943Z,10.70
2019-04-20T04:33:57.058Z,10.80
2019-04-20T04:36:21.136Z,10.80
2019-04-20T04:39:01.211Z,10.70
2019-04-20T04:41:43.960Z,10.70
2019-04-20T04:43:58.762Z,10.60
2019-04-20T04:46:16.447Z,10.60
2019-04-20T04:48:50.784Z,10.70
2019-04-20T04:51:24.415Z,10.70
2019-04-20T04:54:01.352Z,10.60
2019-04-20T04:56:26.831Z,10.60
2019-04-20T04:58:56.653Z,10.60
2019-04-20T05:01:30.735Z,10.70
2019-04-20T05:04:36.151Z,10.70
2019-04-20T05:06:45.809Z,10.70
2019-04-20T05:09:10.400Z,10.70
2019-04-20T05:11:38.567Z,10.70
2019-04-20T05:14:16.853Z,10.80
2019-04-20T05:16:59.367Z,10.80
2019-04-20T05:19:36.806Z,10.90
2019-04-20T05:22:15.965Z,11.00
2019-04-20T05:24:48.159Z,11.10
2019-04-20T05:27:36.347Z,11.20
2019-04-20T05:29:46.843Z,11.30
2019-04-20T05:32:29.456Z,11.30
2019-04-20T05:35:14.987Z,11.40
2019-04-20T05:37:50.133Z,11.50
2019-04-20T05:40:16.478Z,11.70
2019-04-20T05:42:55.589Z,11.90
2019-04-20T05:45:20.619Z,12.40
2019-04-20T05:47:52.469Z,12.90
2019-04-20T05:50:32.837Z,13.20
2019-04-20T05:53:11.826Z,13.40
2019-04-20T05:55:40.114Z,13.60
2019-04-20T05:58:08.905Z,13.60
2019-04-20T06:00:51.910Z,13.60
2019-04-20T06:03:18.463Z,13.40
2019-04-20T06:05:55.270Z,13.30
2019-04-20T06:08:32.980Z,13.30
2019-04-20T06:10:56.002Z,13.30
2019-04-20T06:13:50.570Z,13.60
2019-04-20T06:16:40.291Z,13.90
2019-04-20T06:19:24.278Z,14.30
2019-04-20T06:22:01.666Z,14.60
2019-04-20T06:24:42.116Z,15.00
2019-04-20T06:27:04.862Z,15.40
2019-04-20T06:29:35.162Z,15.60
2019-04-20T06:32:17.452Z,15.70
2019-04-20T06:34:36.677Z,15.70
2019-04-20T06:37:10.002Z,15.90
2019-04-20T06:42:18.166Z,17.00
2019-04-20T06:44:46.382Z,17.50
2019-04-20T06:47:27.335Z,18.10
2019-04-20T06:49:53.728Z,18.20
2019-04-20T06:52:27.512Z,18.20
2019-04-20T06:55:20.613Z,18.10
2019-04-20T06:57:45.314Z,18.00
2019-04-20T07:00:15.343Z,18.30
2019-04-20T07:05:22.302Z,18.70
2019-04-20T07:08:27.697Z,19.10
2019-04-20T07:10:35.872Z,19.30
2019-04-20T07:12:55.643Z,19.30
2019-04-20T07:15:29.001Z,19.40
2019-04-20T07:18:11.759Z,19.70
2019-04-20T07:20:59.552Z,19.80
2019-04-20T07:23:37.007Z,19.70
2019-04-20T07:26:10.095Z,19.40
2019-04-20T07:28:45.098Z,19.30
2019-04-20T07:31:11.505Z,19.20
2019-04-20T07:33:48.009Z,19.00
2019-04-20T07:36:19.877Z,18.70
2019-04-20T07:38:50.011Z,18.40
2019-04-20T07:41:28.444Z,18.10
2019-04-20T07:44:04.693Z,18.30
2019-04-20T07:46:41.213Z,18.30
2019-04-20T07:48:54.315Z,18.30
2019-04-20T07:51:16.253Z,18.50
2019-04-20T07:54:10.284Z,18.60
2019-04-20T07:56:40.756Z,18.80
2019-04-20T07:58:52.719Z,19.00
2019-04-20T08:01:52.719Z,19.30
2019-04-20T08:04:22.391Z,20.00
2019-04-20T08:06:45.931Z,20.30
2019-04-20T08:09:21.968Z,20.80
2019-04-20T08:12:15.414Z,21.10
2019-04-20T08:17:24.422Z,21.60
2019-04-20T08:19:45.654Z,21.40
2019-04-20T08:22:24.645Z,21.30
2019-04-20T08:24:43.577Z,21.30
2019-04-20T08:27:09.946Z,21.30
2019-04-20T08:29:57.928Z,21.10
2019-04-20T08:32:45.541Z,21.10
2019-04-20T08:35:22.402Z,21.00
2019-04-20T08:38:05.570Z,20.90
2019-04-20T08:40:25.449Z,21.10
2019-04-20T08:43:02.787Z,21.20
2019-04-20T08:45:34.841Z,21.10
2019-04-20T08:48:04.138Z,21.40
2019-04-20T08:50:34.109Z,21.40
2019-04-20T08:55:33.501Z,21.40
2019-04-20T08:57:51.485Z,21.50
2019-04-20T09:00:30.892Z,21.90
2019-04-20T09:03:02.369Z,22.30
2019-04-20T09:05:39.877Z,22.50
2019-04-20T09:08:11.331Z,22.90
2019-04-20T09:10:49.516Z,23.10
2019-04-20T09:13:15.865Z,23.10
2019-04-20T09:15:38.432Z,23.20
2019-04-20T09:18:22.855Z,23.10
2019-04-20T09:20:53.859Z,23.10
2019-04-20T09:23:38.094Z,22.80
2019-04-20T09:26:26.773Z,22.60
2019-04-20T09:28:41.779Z,22.70
2019-04-20T09:31:25.855Z,22.70
2019-04-20T09:34:16.127Z,23.00
2019-04-20T09:37:16.822Z,23.10
2019-04-20T09:39:45.008Z,22.60
2019-04-20T09:42:25.774Z,22.00
2019-04-20T09:45:00.706Z,21.60
2019-04-20T09:47:36.881Z,21.40
2019-04-20T09:50:20.958Z,21.60
2019-04-20T09:52:51.304Z,21.70
2019-04-20T09:55:18.400Z,21.80
2019-04-20T09:57:59.019Z,21.80
2019-04-20T10:00:29.090Z,22.00
2019-04-20T10:02:46.406Z,22.00
2019-04-20T10:05:17.725Z,22.10
2019-04-20T10:07:55.981Z,22.10
2019-04-20T10:10:31.156Z,22.30
2019-04-20T10:12:54.198Z,22.70
2019-04-20T10:15:27.587Z,22.60
2019-04-20T10:17:57.410Z,22.80
2019-04-20T10:20:31.727Z,22.60
2019-04-20T10:23:00.610Z,22.70
2019-04-20T10:25:32.795Z,22.60
2019-04-20T10:28:03.848Z,22.70
2019-04-20T10:30:34.753Z,22.90
2019-04-20T10:33:05.753Z,22.90
2019-04-20T10:35:36.737Z,22.80
2019-04-20T10:38:15.706Z,23.10
2019-04-20T10:40:57.240Z,23.40
2019-04-20T10:43:19.834Z,23.50
2019-04-20T10:45:50.941Z,23.70
2019-04-20T10:48:21.809Z,23.50
2019-04-20T10:50:52.831Z,22.90
2019-04-20T10:53:23.803Z,22.60
2019-04-20T10:55:55.720Z,22.50
2019-04-20T10:58:27.443Z,22.30
2019-04-20T11:00:59.631Z,22.10
2019-04-20T11:03:30.361Z,22.10
2019-04-20T11:06:01.082Z,22.00
2019-04-20T11:08:32.899Z,22.10
2019-04-20T11:11:12.986Z,22.20
2019-04-20T11:13:37.345Z,22.00
2019-04-20T11:16:08.532Z,21.90
2019-04-20T11:18:39.718Z,22.00
2019-04-20T11:21:11.422Z,22.10
2019-04-20T11:23:42.462Z,22.10
2019-04-20T11:26:14.030Z,22.30
2019-04-20T11:28:46.139Z,23.10
2019-04-20T11:31:16.942Z,23.70
2019-04-20T11:33:48.058Z,23.70
2019-04-20T11:36:19.162Z,23.30
2019-04-20T11:38:51.150Z,23.00
2019-04-20T11:41:26.135Z,22.70
2019-04-20T11:43:55.634Z,22.50
2019-04-20T11:46:26.948Z,22.50
2019-04-20T11:48:57.803Z,22.80
2019-04-20T11:51:29.790Z,23.30
2019-04-20T11:54:00.670Z,23.80
2019-04-20T11:56:34.838Z,24.50
2019-04-20T11:59:05.210Z,24.40
2019-04-20T12:01:56.587Z,24.10
2019-04-20T12:04:40.708Z,23.70
2019-04-20T12:07:01.236Z,23.60
2019-04-20T12:09:33.522Z,24.50
2019-04-20T12:12:17.872Z,25.70
2019-04-20T12:14:36.821Z,26.70
2019-04-20T12:17:07.937Z,27.20
2019-04-20T12:19:39.784Z,27.60
2019-04-20T12:22:11.779Z,28.00
2019-04-20T12:24:42.629Z,27.70
2019-04-20T12:27:14.544Z,27.70
2019-04-20T12:29:45.756Z,28.40
2019-04-20T12:32:16.748Z,29.10
2019-04-20T12:34:47.517Z,28.90
2019-04-20T12:37:18.726Z,28.60
2019-04-20T12:39:49.468Z,27.80
2019-04-20T12:42:21.172Z,28.40
2019-04-20T12:44:53.297Z,28.80
2019-04-20T12:47:24.110Z,29.50
2019-04-20T12:49:55.814Z,30.00
2019-04-20T12:52:26.729Z,30.30
2019-04-20T12:55:00.850Z,31.30
2019-04-20T12:57:29.843Z,31.80
2019-04-20T13:00:01.672Z,31.30
2019-04-20T13:02:33.461Z,31.10
2019-04-20T13:05:04.944Z,31.50
2019-04-20T13:07:39.601Z,32.10
2019-04-20T13:10:11.468Z,32.30
2019-04-20T13:13:05.077Z,31.50
2019-04-20T13:16:00.719Z,30.80
2019-04-20T13:18:36.973Z,31.10
2019-04-20T13:21:09.186Z,31.70
2019-04-20T13:23:40.606Z,31.00
2019-04-20T13:26:13.916Z,30.00
2019-04-20T13:28:44.654Z,28.80
2019-04-20T13:31:15.687Z,27.60
2019-04-20T13:33:47.618Z,26.70
2019-04-20T13:36:19.813Z,27.20
2019-04-20T13:38:51.927Z,27.00
2019-04-20T13:41:24.106Z,27.50
2019-04-20T13:43:57.879Z,28.70
2019-04-20T13:46:27.319Z,29.20
2019-04-20T13:48:58.088Z,30.20
2019-04-20T13:51:28.794Z,30.70
2019-04-20T13:53:59.554Z,31.30
2019-04-20T13:56:30.317Z,31.80
2019-04-20T13:59:12.849Z,32.40
2019-04-20T14:01:59.088Z,32.60
2019-04-20T14:04:36.897Z,30.20
2019-04-20T14:07:08.883Z,29.20
2019-04-20T14:09:41.466Z,29.60
2019-04-20T14:12:22.529Z,29.80
2019-04-20T14:14:44.626Z,30.30
2019-04-20T14:17:15.366Z,31.10
2019-04-20T14:19:47.166Z,31.90
2019-04-20T14:22:18.785Z,32.10
2019-04-20T14:24:51.016Z,31.80
2019-04-20T14:27:21.793Z,31.80
2019-04-20T14:29:52.969Z,31.80
2019-04-20T14:32:24.974Z,32.30
2019-04-20T14:34:56.801Z,32.20
2019-04-20T14:37:28.611Z,31.70
2019-04-20T14:40:00.617Z,29.70
2019-04-20T14:42:40.553Z,29.20
2019-04-20T14:45:04.749Z,30.20
2019-04-20T14:47:36.144Z,30.50
2019-04-20T14:50:09.776Z,30.60
2019-04-20T14:52:41.682Z,31.00
2019-04-20T14:55:15.696Z,31.20
2019-04-20T14:57:45.610Z,31.00
2019-04-20T15:00:37.477Z,30.60
2019-04-20T15:03:36.701Z,30.20
2019-04-20T15:06:05.565Z,29.20
2019-04-20T15:08:36.824Z,28.20
2019-04-20T15:11:09.126Z,27.90
2019-04-20T15:13:40.639Z,27.50
2019-04-20T15:16:12.842Z,27.30
2019-04-20T15:18:49.091Z,26.70
2019-04-20T15:21:21.599Z,25.70
2019-04-20T15:23:53.295Z,24.80
2019-04-20T15:26:24.454Z,24.00
2019-04-20T15:28:56.531Z,23.50
2019-04-20T15:31:28.227Z,23.10
2019-04-20T15:33:59.148Z,22.80
2019-04-20T15:36:30.068Z,22.40
2019-04-20T15:39:01.080Z,22.20
2019-04-20T15:41:31.915Z,22.10
2019-04-20T15:44:03.665Z,22.00
2019-04-20T15:46:36.236Z,21.90
2019-04-20T15:49:08.107Z,21.80
2019-04-20T15:51:39.800Z,21.70
2019-04-20T15:54:11.511Z,21.70
2019-04-20T15:56:49.730Z,21.50
2019-04-20T15:59:14.740Z,21.50
2019-04-20T16:01:53.310Z,21.40
2019-04-20T16:04:44.865Z,21.30
2019-04-20T16:07:15.364Z,21.30
2019-04-20T16:09:46.355Z,21.30
2019-04-20T16:12:18.385Z,21.30
2019-04-20T16:14:49.469Z,21.20
2019-04-20T16:17:24.267Z,21.10
2019-04-20T16:20:01.158Z,21.10
2019-04-20T16:22:26.843Z,21.10
2019-04-20T16:25:05.738Z,21.00
2019-04-20T16:27:39.386Z,21.00
2019-04-20T16:30:11.644Z,20.90
2019-04-20T16:32:42.718Z,20.90
2019-04-20T16:35:14.103Z,20.80
2019-04-20T16:37:46.405Z,20.80
2019-04-20T16:40:17.763Z,20.70
2019-04-20T16:42:48.534Z,20.70
2019-04-20T16:45:19.327Z,20.60
2019-04-20T16:47:50.214Z,20.60
2019-04-20T16:50:21.043Z,20.60
2019-04-20T16:52:52.707Z,20.50
2019-04-20T16:55:23.457Z,20.50
2019-04-20T16:57:55.411Z,20.40
2019-04-20T17:00:27.540Z,20.40
2019-04-20T17:02:58.583Z,20.40
2019-04-20T17:05:29.322Z,20.30
2019-04-20T17:08:00.718Z,20.30
2019-04-20T17:10:32.746Z,20.30
2019-04-20T17:13:04.097Z,20.20
2019-04-20T17:15:35.062Z,20.10
2019-04-20T17:18:05.865Z,20.00
2019-04-20T17:20:36.897Z,19.90
2019-04-20T17:23:10.524Z,19.90
2019-04-20T17:25:40.219Z,19.80
2019-04-20T17:28:13.167Z,19.80
2019-04-20T17:30:56.801Z,19.70
2019-04-20T17:34:04.696Z,19.60
2019-04-20T17:36:32.751Z,19.60
2019-04-20T17:39:06.736Z,19.40
2019-04-20T17:41:48.809Z,19.30
2019-04-20T17:44:25.046Z,19.20
2019-04-20T17:46:47.628Z,19.10
2019-04-20T17:49:25.651Z,19.10
2019-04-20T17:52:06.258Z,19.00
2019-04-20T17:54:31.415Z,18.90
2019-04-20T17:57:02.364Z,18.80
2019-04-20T17:59:34.576Z,18.70
2019-04-20T18:02:39.331Z,18.60
2019-04-20T18:05:24.203Z,18.50
2019-04-20T18:07:52.323Z,18.30
2019-04-20T18:10:28.931Z,18.10
2019-04-20T18:12:45.803Z,18.00
2019-04-20T18:15:31.554Z,17.90
2019-04-20T18:18:25.870Z,17.80
2019-04-20T18:20:46.751Z,17.70
2019-04-20T18:23:25.499Z,17.60
2019-04-20T18:26:15.861Z,17.40
2019-04-20T18:28:40.152Z,17.30
2019-04-20T18:31:25.844Z,17.10
2019-04-20T18:34:07.028Z,16.90
2019-04-20T18:36:38.293Z,16.80
2019-04-20T18:39:11.584Z,16.60
2019-04-20T18:41:48.577Z,16.50
2019-04-20T18:44:30.393Z,16.40
2019-04-20T18:47:17.943Z,16.40
2019-04-20T18:49:40.972Z,16.30
2019-04-20T18:52:02.068Z,16.20
2019-04-20T18:54:39.568Z,16.10
2019-04-20T18:57:11.122Z,16.00
2019-04-20T18:59:45.066Z,15.90
2019-04-20T19:02:16.495Z,15.80
2019-04-20T19:04:43.864Z,15.70
2019-04-20T19:07:14.713Z,15.60
2019-04-20T19:10:14.498Z,15.40
2019-04-20T19:12:48.061Z,15.40
2019-04-20T19:15:57.801Z,15.20
2019-04-20T19:18:54.481Z,15.10
2019-04-20T19:21:11.132Z,15.00
2019-04-20T19:23:51.629Z,14.90
2019-04-20T19:26:18.251Z,14.90
2019-04-20T19:28:52.777Z,14.90
2019-04-20T19:31:35.474Z,15.00
2019-04-20T19:34:11.798Z,15.10
2019-04-20T19:36:34.057Z,15.10
2019-04-20T19:39:15.237Z,15.10
2019-04-20T19:41:40.754Z,15.20
2019-04-20T19:44:14.796Z,15.20
2019-04-20T19:47:01.648Z,15.30
2019-04-20T19:49:19.624Z,15.10
2019-04-20T19:52:04.231Z,15.00
2019-04-20T19:54:33.012Z,15.00
2019-04-20T19:56:58.571Z,14.90
2019-04-20T19:59:25.113Z,14.80
2019-04-20T20:01:47.753Z,14.70
2019-04-20T20:04:19.706Z,14.70
2019-04-20T20:06:56.554Z,14.70
2019-04-20T20:09:23.846Z,14.60
2019-04-20T20:11:58.549Z,14.60
2019-04-20T20:14:34.281Z,14.50
2019-04-20T20:17:25.144Z,14.60
2019-04-20T20:19:54.460Z,14.70
2019-04-20T20:22:18.389Z,14.80
2019-04-20T20:24:38.920Z,14.70
2019-04-20T20:27:23.163Z,14.60
2019-04-20T20:29:57.179Z,14.50
2019-04-20T20:32:20.148Z,14.30
2019-04-20T20:34:56.133Z,14.20
2019-04-20T20:37:27.238Z,14.20
2019-04-20T20:40:02.140Z,14.10
2019-04-20T20:42:32.991Z,14.10
2019-04-20T20:45:09.645Z,14.10
2019-04-20T20:47:50.611Z,14.10
2019-04-20T20:50:20.280Z,14.20
2019-04-20T20:52:53.854Z,14.20
2019-04-20T20:55:18.209Z,14.30
2019-04-20T20:57:50.804Z,14.40
2019-04-20T21:00:24.772Z,14.40
2019-04-20T21:02:50.891Z,14.30
2019-04-20T21:05:15.610Z,14.30
2019-04-20T21:07:48.350Z,14.20
2019-04-20T21:10:26.503Z,14.20
2019-04-20T21:12:55.809Z,14.20
2019-04-20T21:15:26.113Z,14.30
2019-04-20T21:18:20.793Z,14.20
2019-04-20T21:20:51.929Z,14.20
2019-04-20T21:23:15.186Z,14.20
2019-04-20T21:25:43.738Z,14.20
2019-04-20T21:28:09.333Z,14.50
2019-04-20T21:30:43.720Z,14.60
2019-04-20T21:33:13.197Z,14.60
2019-04-20T21:35:48.578Z,14.60
2019-04-20T21:38:18.634Z,14.70
2019-04-20T21:40:54.902Z,14.70
2019-04-20T21:43:27.899Z,14.60
2019-04-20T21:45:59.422Z,14.60
2019-04-20T21:48:49.294Z,14.60
2019-04-20T21:51:16.628Z,14.40
2019-04-20T21:53:33.680Z,14.30
2019-04-20T21:56:03.944Z,14.20
2019-04-20T21:58:41.565Z,14.10
2019-04-20T22:01:17.633Z,14.10
2019-04-20T22:03:40.518Z,14.10
2019-04-20T22:06:11.241Z,14.00
2019-04-20T22:08:49.328Z,13.90
2019-04-20T22:11:15.664Z,13.80
2019-04-20T22:13:49.065Z,13.70
2019-04-20T22:16:21.943Z,13.60
2019-04-20T22:18:59.201Z,13.60
2019-04-20T22:21:37.373Z,13.60
2019-04-20T22:24:09.443Z,13.60
2019-04-20T22:26:34.387Z,13.60
2019-04-20T22:29:00.494Z,13.50
2019-04-20T22:31:31.929Z,13.50
2019-04-20T22:34:07.729Z,13.30
2019-04-20T22:36:41.410Z,13.20
2019-04-20T22:39:15.745Z,13.20
2019-04-20T22:42:00.183Z,13.10
2019-04-20T22:44:30.169Z,13.20
2019-04-20T22:47:00.488Z,13.10
2019-04-20T22:49:47.249Z,13.10
2019-04-20T22:52:14.248Z,13.10
2019-04-20T22:54:50.365Z,13.00
2019-04-20T22:57:19.308Z,12.90
2019-04-20T22:59:52.319Z,12.90
2019-04-20T23:02:13.498Z,12.90
2019-04-20T23:04:44.656Z,12.90
2019-04-20T23:07:16.739Z,12.90
2019-04-20T23:09:52.939Z,12.80
2019-04-20T23:12:23.198Z,12.80
2019-04-20T23:14:52.413Z,12.80
2019-04-20T23:17:30.314Z,12.70
2019-04-20T23:19:59.242Z,12.70
2019-04-20T23:22:34.766Z,12.70
2019-04-20T23:25:00.043Z,12.70
2019-04-20T23:27:32.125Z,12.70
2019-04-20T23:30:10.968Z,12.70
2019-04-20T23:32:35.913Z,12.60
2019-04-20T23:35:11.908Z,12.60
2019-04-20T23:37:40.574Z,12.60
2019-04-20T23:40:13.694Z,12.70
2019-04-20T23:42:49.536Z,12.60
2019-04-20T23:45:38.753Z,12.50
2019-04-20T23:48:10.169Z,12.50
2019-04-20T23:50:55.522Z,12.50
2019-04-20T23:53:28.439Z,12.50
2019-04-20T23:55:45.751Z,12.40
2019-04-20T23:58:17.777Z,12.40
